CMA CGM Arkansas — 9HA3973 — position and weather

sailwx.info

Track history (hours):
 
Tides and Currents Weather Stations Pressure Air Temp Water Temp Dewpoint Dewpoint Depression Visibility Wind Speed Wind Dir Waves Ship Positions

CMA CGM Arkansas

Last reported at 2018-Jun-17 19:37 UTC. Time now 2018-Jun-23 02:56 UTC.
Position N 01°31' E 103°02'.

Length 300 m; draft 14.5 m.

Type: Ship (hazmat cat A). MMSI: 256644000.

Date/timePositionNaut miles runAvg speedWind from/ knotsBaromVisibWave heightAir tempDewpointWater temp
2018-Jun-17 19:37N 01°31' E 103°02'318.2
2018-Jun-17 19:28N 01°29' E 103°04'817.1
2018-Jun-17 19:00N 01°25' E 103°11'917.7
2018-Jun-17 18:30N 01°20' E 103°18'816.2
2018-Jun-17 18:00N 01°15' E 103°25'816.2
2018-Jun-17 17:30N 01°13' E 103°32'714.1
2018-Jun-17 17:00N 01°12' E 103°39'3 6.7
2018-Jun-17 16:30N 01°14' E 103°42'5 9.3
2018-Jun-17 16:00N 01°16' E 103°46'0 0.9
2018-Jun-17 15:30N 01°15' E 103°47'0 0.0
2018-Jun-17 14:59N 01°15' E 103°47'0 0.0
2018-Jun-17 14:26N 01°15' E 103°47'0 0.0
2018-Jun-17 13:59N 01°15' E 103°47'0 0.0
2018-Jun-17 13:23N 01°15' E 103°47'0 0.0
2018-Jun-17 12:59N 01°15' E 103°47'0 0.0
2018-Jun-17 12:30N 01°15' E 103°47'0 0.0
2018-Jun-17 11:57N 01°15' E 103°47'0 0.0
2018-Jun-17 11:30N 01°15' E 103°47'0 0.0
2018-Jun-17 10:51N 01°15' E 103°47'0 0.0
2018-Jun-17 10:30N 01°15' E 103°47'0 0.0
2018-Jun-17 10:00N 01°15' E 103°47'0 0.0
2018-Jun-17 09:27N 01°15' E 103°47'0 0.0
2018-Jun-17 08:56N 01°15' E 103°47'0 0.0
2018-Jun-17 08:30N 01°15' E 103°47'0 0.0
2018-Jun-17 07:54N 01°15' E 103°47'0 0.0
2018-Jun-17 07:11N 01°15' E 103°47'0 0.0
2018-Jun-17 07:00N 01°15' E 103°47'0 0.0
2018-Jun-17 06:26N 01°15' E 103°47'0 0.0
2018-Jun-17 06:00N 01°15' E 103°47'0 0.0
2018-Jun-17 05:26N 01°15' E 103°47'0 0.0
2018-Jun-17 05:00N 01°15' E 103°47'0 0.0
2018-Jun-17 04:30N 01°15' E 103°47'0 0.0
2018-Jun-17 04:00N 01°15' E 103°47'0 0.0
2018-Jun-17 03:29N 01°15' E 103°47'0 0.0
2018-Jun-17 02:57N 01°15' E 103°47'0 0.0
2018-Jun-17 02:29N 01°15' E 103°47'0 0.0
2018-Jun-17 02:00N 01°15' E 103°47'0 0.0
2018-Jun-17 01:30N 01°15' E 103°47'0 0.0
2018-Jun-17 00:59N 01°15' E 103°47'0 0.0
2018-Jun-17 00:29N 01°15' E 103°47'0 0.0
2018-Jun-17 00:00N 01°15' E 103°47'0 0.0
2018-Jun-16 23:30N 01°15' E 103°47'0 0.0
2018-Jun-16 22:59N 01°15' E 103°47'0 0.0
2018-Jun-16 22:30N 01°15' E 103°47'0 0.0
2018-Jun-16 21:57N 01°15' E 103°47'0 0.0
2018-Jun-16 21:27N 01°15' E 103°47'0 0.0
2018-Jun-16 21:00N 01°15' E 103°47'0 0.0
2018-Jun-16 20:30N 01°15' E 103°47'0 0.0
2018-Jun-16 20:00N 01°15' E 103°47'0 0.0
2018-Jun-16 19:30N 01°15' E 103°47'0 0.3
2018-Jun-16 19:00N 01°15' E 103°47'1 1.0
2018-Jun-16 18:31N 01°15' E 103°47'0 0.6
2018-Jun-16 18:00N 01°15' E 103°47'4 7.2
2018-Jun-16 17:30N 01°12' E 103°50'4 8.7
2018-Jun-16 17:00N 01°13' E 103°54'4 8.7
2018-Jun-16 16:31N 01°15' E 103°58'5 9.7
2018-Jun-16 16:00N 01°16' E 104°03'5 9.7
2018-Jun-16 15:30N 01°17' E 104°08'510.5
2018-Jun-16 15:00N 01°17' E 104°13'5 9.8
2018-Jun-16 14:30N 01°18' E 104°18'510.2
2018-Jun-16 13:59N 01°21' E 104°22'817.1
2018-Jun-16 13:30N 01°26' E 104°28'  
2018-Jun-12 02:00N 22°45' E 116°47'917.9
2018-Jun-12 01:30N 22°49' E 116°55'917.6
2018-Jun-12 01:00N 22°54' E 117°03'917.4
2018-Jun-12 00:29N 22°57' E 117°12'816.6
2018-Jun-12 00:00N 23°02' E 117°19'816.2
2018-Jun-11 23:30N 23°07' E 117°26'916.2
2018-Jun-11 22:56N 23°12' E 117°34'816.2
2018-Jun-11 22:27N 23°17' E 117°41'1016.1
2018-Jun-11 21:49N 23°23' E 117°49'716.5
2018-Jun-11 21:25N 23°27' E 117°55'716.4
2018-Jun-11 20:59N 23°33' E 118°00'1117.1
2018-Jun-11 20:19N 23°43' E 118°06'617.3
2018-Jun-11 19:58N 23°48' E 118°10'817.6
2018-Jun-11 19:30N 23°55' E 118°14'917.6
2018-Jun-11 19:00N 24°03' E 118°17'917.1
2018-Jun-11 18:30N 24°12' E 118°17'713.5
2018-Jun-11 18:00N 24°17' E 118°13'613.0
2018-Jun-11 17:30N 24°22' E 118°08'612.1
2018-Jun-11 17:00N 24°26' E 118°03'4 7.6
2018-Jun-11 16:30N 24°27' E 117°59'0 0.3
2018-Jun-11 15:55N 24°27' E 117°59'0 0.0
2018-Jun-11 15:25N 24°27' E 117°59'0 0.0
2018-Jun-11 14:58N 24°27' E 117°59'0 0.0
2018-Jun-11 14:25N 24°27' E 117°59'0 0.0
2018-Jun-11 13:58N 24°27' E 117°59'0 0.0
2018-Jun-11 13:25N 24°27' E 117°59'0 0.0
2018-Jun-11 12:58N 24°27' E 117°59'0 0.0
2018-Jun-11 12:28N 24°27' E 117°59'0 0.0
2018-Jun-11 11:55N 24°27' E 117°59'0 0.0
2018-Jun-11 11:25N 24°27' E 117°59'0 0.0
2018-Jun-11 10:55N 24°27' E 117°59'0 0.0
2018-Jun-11 10:28N 24°27' E 117°59'0 0.0
2018-Jun-11 09:58N 24°27' E 117°59'0 0.0
2018-Jun-11 09:25N 24°27' E 117°59'0 0.0
2018-Jun-11 08:55N 24°27' E 117°59'0 0.0
2018-Jun-11 08:28N 24°27' E 117°59'0 0.0
2018-Jun-11 07:58N 24°27' E 117°59'0 0.0
2018-Jun-11 07:28N 24°27' E 117°59'0 0.0
2018-Jun-11 06:55N 24°27' E 117°59'0 0.0
2018-Jun-11 06:25N 24°27' E 117°59'0 0.0
2018-Jun-11 05:55N 24°27' E 117°59'0 0.0
2018-Jun-11 05:28N 24°27' E 117°59'0 0.0
2018-Jun-11 04:58N 24°27' E 117°59'0 0.0
2018-Jun-11 04:25N 24°27' E 117°59'0 0.0
2018-Jun-11 03:58N 24°27' E 117°59'0 0.0
2018-Jun-11 03:28N 24°27' E 117°59'0 0.1
2018-Jun-11 03:00N 24°27' E 117°59'1 2.8
2018-Jun-11 02:30N 24°27' E 118°00'510.4
2018-Jun-11 02:00N 24°25' E 118°05'4 9.0
2018-Jun-11 01:30N 24°21' E 118°09'4 7.4
2018-Jun-11 01:00N 24°19' E 118°12'5 9.8
2018-Jun-11 00:30N 24°15' E 118°15'5 9.5
2018-Jun-10 23:59N 24°12' E 118°20'510.1
2018-Jun-10 23:30N 24°11' E 118°25'510.7
2018-Jun-10 23:00N 24°09' E 118°30'510.6
2018-Jun-10 22:30N 24°08' E 118°36'610.6
2018-Jun-10 21:57N 24°06' E 118°42'93 8.6
2018-Jun-10 11:09N 22°59' E 119°52'211.5
2018-Jun-10 11:00N 22°57' E 119°52'611.9
2018-Jun-10 10:30N 22°52' E 119°56'610.8
2018-Jun-10 10:00N 22°48' E 120°00'510.9
2018-Jun-10 09:30N 22°45' E 120°04'611.2
2018-Jun-10 09:00N 22°40' E 120°08'510.4
2018-Jun-10 08:30N 22°36' E 120°11'4 9.1
2018-Jun-10 08:00N 22°33' E 120°15'4 7.8
2018-Jun-10 07:30N 22°33' E 120°19'0 0.1
2018-Jun-10 03:46N 22°34' E 120°19'0 0.0
2018-Jun-10 03:28N 22°34' E 120°19'0 0.0
2018-Jun-10 02:52N 22°34' E 120°19'0 0.0
2018-Jun-10 02:22N 22°34' E 120°19'0 0.0
2018-Jun-10 01:58N 22°34' E 120°19'0 0.0
2018-Jun-10 01:28N 22°34' E 120°19'0 0.0
2018-Jun-10 00:52N 22°34' E 120°19'0 0.0
2018-Jun-10 00:28N 22°34' E 120°19'0 0.2
2018-Jun-10 00:00N 22°34' E 120°19'1 2.6
2018-Jun-09 23:30N 22°33' E 120°18'4 7.0
2018-Jun-09 23:00N 22°32' E 120°14'611.8
2018-Jun-09 22:30N 22°37' E 120°10'918.8
2018-Jun-09 22:00N 22°45' E 120°05'918.3
2018-Jun-09 21:30N 22°52' E 119°60'  
Track history (hours):
 
Tides and Currents Weather Stations Pressure Air Temp Water Temp Dewpoint Dewpoint Depression Visibility Wind Speed Wind Dir Waves Ship Positions

CMA CGM Arkansas

Last reported at 2018-Jun-17 19:37 UTC. Time now 2018-Jun-23 02:56 UTC.
Position N 01°31' E 103°02'.

Length 300 m; draft 14.5 m.

Type: Ship (hazmat cat A). MMSI: 256644000.

Date/timePositionNaut miles runAvg speedWind from/ knotsBaromVisibWave heightAir tempDewpointWater temp
2018-Jun-17 19:37N 01°31' E 103°02'318.2
2018-Jun-17 19:28N 01°29' E 103°04'817.1
2018-Jun-17 19:00N 01°25' E 103°11'917.7
2018-Jun-17 18:30N 01°20' E 103°18'816.2
2018-Jun-17 18:00N 01°15' E 103°25'816.2
2018-Jun-17 17:30N 01°13' E 103°32'714.1
2018-Jun-17 17:00N 01°12' E 103°39'3 6.7
2018-Jun-17 16:30N 01°14' E 103°42'5 9.3
2018-Jun-17 16:00N 01°16' E 103°46'0 0.9
2018-Jun-17 15:30N 01°15' E 103°47'0 0.0
2018-Jun-17 14:59N 01°15' E 103°47'0 0.0
2018-Jun-17 14:26N 01°15' E 103°47'0 0.0
2018-Jun-17 13:59N 01°15' E 103°47'0 0.0
2018-Jun-17 13:23N 01°15' E 103°47'0 0.0
2018-Jun-17 12:59N 01°15' E 103°47'0 0.0
2018-Jun-17 12:30N 01°15' E 103°47'0 0.0
2018-Jun-17 11:57N 01°15' E 103°47'0 0.0
2018-Jun-17 11:30N 01°15' E 103°47'0 0.0
2018-Jun-17 10:51N 01°15' E 103°47'0 0.0
2018-Jun-17 10:30N 01°15' E 103°47'0 0.0
2018-Jun-17 10:00N 01°15' E 103°47'0 0.0
2018-Jun-17 09:27N 01°15' E 103°47'0 0.0
2018-Jun-17 08:56N 01°15' E 103°47'0 0.0
2018-Jun-17 08:30N 01°15' E 103°47'0 0.0
2018-Jun-17 07:54N 01°15' E 103°47'0 0.0
2018-Jun-17 07:11N 01°15' E 103°47'0 0.0
2018-Jun-17 07:00N 01°15' E 103°47'0 0.0
2018-Jun-17 06:26N 01°15' E 103°47'0 0.0
2018-Jun-17 06:00N 01°15' E 103°47'0 0.0
2018-Jun-17 05:26N 01°15' E 103°47'0 0.0
2018-Jun-17 05:00N 01°15' E 103°47'0 0.0
2018-Jun-17 04:30N 01°15' E 103°47'0 0.0
2018-Jun-17 04:00N 01°15' E 103°47'0 0.0
2018-Jun-17 03:29N 01°15' E 103°47'0 0.0
2018-Jun-17 02:57N 01°15' E 103°47'0 0.0
2018-Jun-17 02:29N 01°15' E 103°47'0 0.0
2018-Jun-17 02:00N 01°15' E 103°47'0 0.0
2018-Jun-17 01:30N 01°15' E 103°47'0 0.0
2018-Jun-17 00:59N 01°15' E 103°47'0 0.0
2018-Jun-17 00:29N 01°15' E 103°47'0 0.0
2018-Jun-17 00:00N 01°15' E 103°47'0 0.0
2018-Jun-16 23:30N 01°15' E 103°47'0 0.0
2018-Jun-16 22:59N 01°15' E 103°47'0 0.0
2018-Jun-16 22:30N 01°15' E 103°47'0 0.0
2018-Jun-16 21:57N 01°15' E 103°47'0 0.0
2018-Jun-16 21:27N 01°15' E 103°47'0 0.0
2018-Jun-16 21:00N 01°15' E 103°47'0 0.0
2018-Jun-16 20:30N 01°15' E 103°47'0 0.0
2018-Jun-16 20:00N 01°15' E 103°47'0 0.0
2018-Jun-16 19:30N 01°15' E 103°47'0 0.3
2018-Jun-16 19:00N 01°15' E 103°47'1 1.0
2018-Jun-16 18:31N 01°15' E 103°47'0 0.6
2018-Jun-16 18:00N 01°15' E 103°47'4 7.2
2018-Jun-16 17:30N 01°12' E 103°50'4 8.7
2018-Jun-16 17:00N 01°13' E 103°54'4 8.7
2018-Jun-16 16:31N 01°15' E 103°58'5 9.7
2018-Jun-16 16:00N 01°16' E 104°03'5 9.7
2018-Jun-16 15:30N 01°17' E 104°08'510.5
2018-Jun-16 15:00N 01°17' E 104°13'5 9.8
2018-Jun-16 14:30N 01°18' E 104°18'510.2
2018-Jun-16 13:59N 01°21' E 104°22'817.1
2018-Jun-16 13:30N 01°26' E 104°28'  
2018-Jun-12 02:00N 22°45' E 116°47'917.9
2018-Jun-12 01:30N 22°49' E 116°55'917.6
2018-Jun-12 01:00N 22°54' E 117°03'917.4
2018-Jun-12 00:29N 22°57' E 117°12'816.6
2018-Jun-12 00:00N 23°02' E 117°19'816.2
2018-Jun-11 23:30N 23°07' E 117°26'916.2
2018-Jun-11 22:56N 23°12' E 117°34'816.2
2018-Jun-11 22:27N 23°17' E 117°41'1016.1
2018-Jun-11 21:49N 23°23' E 117°49'716.5
2018-Jun-11 21:25N 23°27' E 117°55'716.4
2018-Jun-11 20:59N 23°33' E 118°00'1117.1
2018-Jun-11 20:19N 23°43' E 118°06'617.3
2018-Jun-11 19:58N 23°48' E 118°10'817.6
2018-Jun-11 19:30N 23°55' E 118°14'917.6
2018-Jun-11 19:00N 24°03' E 118°17'917.1
2018-Jun-11 18:30N 24°12' E 118°17'713.5
2018-Jun-11 18:00N 24°17' E 118°13'613.0
2018-Jun-11 17:30N 24°22' E 118°08'612.1
2018-Jun-11 17:00N 24°26' E 118°03'4 7.6
2018-Jun-11 16:30N 24°27' E 117°59'0 0.3
2018-Jun-11 15:55N 24°27' E 117°59'0 0.0
2018-Jun-11 15:25N 24°27' E 117°59'0 0.0
2018-Jun-11 14:58N 24°27' E 117°59'0 0.0
2018-Jun-11 14:25N 24°27' E 117°59'0 0.0
2018-Jun-11 13:58N 24°27' E 117°59'0 0.0
2018-Jun-11 13:25N 24°27' E 117°59'0 0.0
2018-Jun-11 12:58N 24°27' E 117°59'0 0.0
2018-Jun-11 12:28N 24°27' E 117°59'0 0.0
2018-Jun-11 11:55N 24°27' E 117°59'0 0.0
2018-Jun-11 11:25N 24°27' E 117°59'0 0.0
2018-Jun-11 10:55N 24°27' E 117°59'0 0.0
2018-Jun-11 10:28N 24°27' E 117°59'0 0.0
2018-Jun-11 09:58N 24°27' E 117°59'0 0.0
2018-Jun-11 09:25N 24°27' E 117°59'0 0.0
2018-Jun-11 08:55N 24°27' E 117°59'0 0.0
2018-Jun-11 08:28N 24°27' E 117°59'0 0.0
2018-Jun-11 07:58N 24°27' E 117°59'0 0.0
2018-Jun-11 07:28N 24°27' E 117°59'0 0.0
2018-Jun-11 06:55N 24°27' E 117°59'0 0.0
2018-Jun-11 06:25N 24°27' E 117°59'0 0.0
2018-Jun-11 05:55N 24°27' E 117°59'0 0.0
2018-Jun-11 05:28N 24°27' E 117°59'0 0.0
2018-Jun-11 04:58N 24°27' E 117°59'0 0.0
2018-Jun-11 04:25N 24°27' E 117°59'0 0.0
2018-Jun-11 03:58N 24°27' E 117°59'0 0.0
2018-Jun-11 03:28N 24°27' E 117°59'0 0.1
2018-Jun-11 03:00N 24°27' E 117°59'1 2.8
2018-Jun-11 02:30N 24°27' E 118°00'510.4
2018-Jun-11 02:00N 24°25' E 118°05'4 9.0
2018-Jun-11 01:30N 24°21' E 118°09'4 7.4
2018-Jun-11 01:00N 24°19' E 118°12'5 9.8
2018-Jun-11 00:30N 24°15' E 118°15'5 9.5
2018-Jun-10 23:59N 24°12' E 118°20'510.1
2018-Jun-10 23:30N 24°11' E 118°25'510.7
2018-Jun-10 23:00N 24°09' E 118°30'510.6
2018-Jun-10 22:30N 24°08' E 118°36'610.6
2018-Jun-10 21:57N 24°06' E 118°42'93 8.6
2018-Jun-10 11:09N 22°59' E 119°52'211.5
2018-Jun-10 11:00N 22°57' E 119°52'611.9
2018-Jun-10 10:30N 22°52' E 119°56'610.8
2018-Jun-10 10:00N 22°48' E 120°00'510.9
2018-Jun-10 09:30N 22°45' E 120°04'611.2
2018-Jun-10 09:00N 22°40' E 120°08'510.4
2018-Jun-10 08:30N 22°36' E 120°11'4 9.1
2018-Jun-10 08:00N 22°33' E 120°15'4 7.8
2018-Jun-10 07:30N 22°33' E 120°19'0 0.1
2018-Jun-10 03:46N 22°34' E 120°19'0 0.0
2018-Jun-10 03:28N 22°34' E 120°19'0 0.0
2018-Jun-10 02:52N 22°34' E 120°19'0 0.0
2018-Jun-10 02:22N 22°34' E 120°19'0 0.0
2018-Jun-10 01:58N 22°34' E 120°19'0 0.0
2018-Jun-10 01:28N 22°34' E 120°19'0 0.0
2018-Jun-10 00:52N 22°34' E 120°19'0 0.0
2018-Jun-10 00:28N 22°34' E 120°19'0 0.2
2018-Jun-10 00:00N 22°34' E 120°19'1 2.6
2018-Jun-09 23:30N 22°33' E 120°18'4 7.0
2018-Jun-09 23:00N 22°32' E 120°14'611.8
2018-Jun-09 22:30N 22°37' E 120°10'918.8
2018-Jun-09 22:00N 22°45' E 120°05'918.3
2018-Jun-09 21:30N 22°52' E 119°60'  

Dump ship's entire track history